sensor_id;sensor_type;location;lat;lon;timestamp;temperature;humidity
23873;DHT22;42884;50.718;4.630;2023-06-22T00:01:58;21.70;99.90
23873;DHT22;42884;50.718;4.630;2023-06-22T00:04:24;21.70;99.90
23873;DHT22;42884;50.718;4.630;2023-06-22T00:06:49;21.70;99.90
23873;DHT22;42884;50.718;4.630;2023-06-22T00:09:15;21.70;99.90
23873;DHT22;42884;50.718;4.630;2023-06-22T00:11:40;21.70;99.90
23873;DHT22;42884;50.718;4.630;2023-06-22T00:14:06;21.70;99.90
23873;DHT22;42884;50.718;4.630;2023-06-22T00:16:32;21.60;99.90
23873;DHT22;42884;50.718;4.630;2023-06-22T00:18:58;21.60;99.90
23873;DHT22;42884;50.718;4.630;2023-06-22T00:21:29;21.60;99.90
23873;DHT22;42884;50.718;4.630;2023-06-22T00:23:54;21.60;99.90
23873;DHT22;42884;50.718;4.630;2023-06-22T00:26:20;21.50;99.90
23873;DHT22;42884;50.718;4.630;2023-06-22T00:28:46;21.50;99.90
23873;DHT22;42884;50.718;4.630;2023-06-22T00:31:12;21.50;99.90
23873;DHT22;42884;50.718;4.630;2023-06-22T00:33:37;21.50;99.90
23873;DHT22;42884;50.718;4.630;2023-06-22T00:36:04;21.50;99.90
23873;DHT22;42884;50.718;4.630;2023-06-22T00:38:29;21.40;99.90
23873;DHT22;42884;50.718;4.630;2023-06-22T00:40:55;21.40;99.90
23873;DHT22;42884;50.718;4.630;2023-06-22T00:43:21;21.40;99.90
23873;DHT22;42884;50.718;4.630;2023-06-22T00:45:46;21.40;99.90
23873;DHT22;42884;50.718;4.630;2023-06-22T00:48:12;21.40;99.90
23873;DHT22;42884;50.718;4.630;2023-06-22T00:50:39;21.40;99.90
23873;DHT22;42884;50.718;4.630;2023-06-22T00:53:05;21.30;99.90
23873;DHT22;42884;50.718;4.630;2023-06-22T00:55:43;21.30;99.90
23873;DHT22;42884;50.718;4.630;2023-06-22T00:58:11;21.40;99.90
23873;DHT22;42884;50.718;4.630;2023-06-22T01:00:37;21.40;99.90
23873;DHT22;42884;50.718;4.630;2023-06-22T01:03:03;21.40;99.90
23873;DHT22;42884;50.718;4.630;2023-06-22T01:05:29;21.30;99.90
23873;DHT22;42884;50.718;4.630;2023-06-22T01:10:31;21.40;99.90
23873;DHT22;42884;50.718;4.630;2023-06-22T01:13:07;21.40;99.90
23873;DHT22;42884;50.718;4.630;2023-06-22T01:15:45;21.40;99.90
23873;DHT22;42884;50.718;4.630;2023-06-22T01:18:12;21.30;99.90
23873;DHT22;42884;50.718;4.630;2023-06-22T01:20:39;21.40;99.90
23873;DHT22;42884;50.718;4.630;2023-06-22T01:25:33;21.40;99.90
23873;DHT22;42884;50.718;4.630;2023-06-22T01:28:39;21.40;99.90
23873;DHT22;42884;50.718;4.630;2023-06-22T01:30:53;21.30;99.90
23873;DHT22;42884;50.718;4.630;2023-06-22T01:33:28;21.40;99.90
23873;DHT22;42884;50.718;4.630;2023-06-22T01:35:54;21.40;99.90
23873;DHT22;42884;50.718;4.630;2023-06-22T01:38:20;21.40;99.90
23873;DHT22;42884;50.718;4.630;2023-06-22T01:40:46;21.40;99.90
23873;DHT22;42884;50.718;4.630;2023-06-22T01:43:12;21.40;99.90
23873;DHT22;42884;50.718;4.630;2023-06-22T01:45:38;21.40;99.90
23873;DHT22;42884;50.718;4.630;2023-06-22T01:48:04;21.30;99.90
23873;DHT22;42884;50.718;4.630;2023-06-22T01:50:29;21.30;99.90
23873;DHT22;42884;50.718;4.630;2023-06-22T01:52:55;21.30;99.90
23873;DHT22;42884;50.718;4.630;2023-06-22T01:55:21;21.30;99.90
23873;DHT22;42884;50.718;4.630;2023-06-22T01:57:46;21.30;99.90
23873;DHT22;42884;50.718;4.630;2023-06-22T02:00:13;21.30;99.90
23873;DHT22;42884;50.718;4.630;2023-06-22T02:02:54;21.30;99.90
23873;DHT22;42884;50.718;4.630;2023-06-22T02:05:22;21.30;99.90
23873;DHT22;42884;50.718;4.630;2023-06-22T02:08:33;21.20;99.90
23873;DHT22;42884;50.718;4.630;2023-06-22T02:10:38;21.20;99.90
23873;DHT22;42884;50.718;4.630;2023-06-22T02:13:06;21.20;99.90
23873;DHT22;42884;50.718;4.630;2023-06-22T02:15:33;21.10;99.90
23873;DHT22;42884;50.718;4.630;2023-06-22T02:17:59;21.10;99.90
23873;DHT22;42884;50.718;4.630;2023-06-22T02:20:25;21.10;99.90
23873;DHT22;42884;50.718;4.630;2023-06-22T02:22:51;21.10;99.90
23873;DHT22;42884;50.718;4.630;2023-06-22T02:25:16;21.10;99.90
23873;DHT22;42884;50.718;4.630;2023-06-22T02:27:42;21.10;99.90
23873;DHT22;42884;50.718;4.630;2023-06-22T02:30:08;21.10;99.90
23873;DHT22;42884;50.718;4.630;2023-06-22T02:32:34;21.10;99.90
23873;DHT22;42884;50.718;4.630;2023-06-22T02:35:00;21.10;99.90
23873;DHT22;42884;50.718;4.630;2023-06-22T02:37:29;21.00;99.90
23873;DHT22;42884;50.718;4.630;2023-06-22T02:39:55;21.00;99.90
23873;DHT22;42884;50.718;4.630;2023-06-22T02:42:21;21.00;99.90
23873;DHT22;42884;50.718;4.630;2023-06-22T02:44:47;21.00;99.90
23873;DHT22;42884;50.718;4.630;2023-06-22T02:47:12;21.00;99.90
23873;DHT22;42884;50.718;4.630;2023-06-22T02:49:38;20.90;99.90
23873;DHT22;42884;50.718;4.630;2023-06-22T02:52:04;20.90;99.90
23873;DHT22;42884;50.718;4.630;2023-06-22T02:54:29;20.90;99.90
23873;DHT22;42884;50.718;4.630;2023-06-22T02:56:55;20.90;99.90
23873;DHT22;42884;50.718;4.630;2023-06-22T02:59:20;20.90;99.90
23873;DHT22;42884;50.718;4.630;2023-06-22T03:01:49;20.80;99.90
23873;DHT22;42884;50.718;4.630;2023-06-22T03:04:15;20.80;99.90
23873;DHT22;42884;50.718;4.630;2023-06-22T03:06:41;20.70;99.90
23873;DHT22;42884;50.718;4.630;2023-06-22T03:09:06;20.70;99.90
23873;DHT22;42884;50.718;4.630;2023-06-22T03:11:33;20.70;99.90
23873;DHT22;42884;50.718;4.630;2023-06-22T03:13:59;20.70;99.90
23873;DHT22;42884;50.718;4.630;2023-06-22T03:16:24;20.70;99.90
23873;DHT22;42884;50.718;4.630;2023-06-22T03:18:50;20.70;99.90
23873;DHT22;42884;50.718;4.630;2023-06-22T03:21:16;20.60;99.90
23873;DHT22;42884;50.718;4.630;2023-06-22T03:23:42;20.70;99.90
23873;DHT22;42884;50.718;4.630;2023-06-22T03:26:08;20.70;99.90
23873;DHT22;42884;50.718;4.630;2023-06-22T03:28:34;20.70;99.90
23873;DHT22;42884;50.718;4.630;2023-06-22T03:30:59;20.60;99.90
23873;DHT22;42884;50.718;4.630;2023-06-22T03:33:25;20.60;99.90
23873;DHT22;42884;50.718;4.630;2023-06-22T03:35:51;20.70;99.90
23873;DHT22;42884;50.718;4.630;2023-06-22T03:38:17;20.60;99.90
23873;DHT22;42884;50.718;4.630;2023-06-22T03:40:42;20.60;99.90
23873;DHT22;42884;50.718;4.630;2023-06-22T03:43:08;20.60;99.90
23873;DHT22;42884;50.718;4.630;2023-06-22T03:45:34;20.60;99.90
23873;DHT22;42884;50.718;4.630;2023-06-22T03:48:00;20.70;99.90
23873;DHT22;42884;50.718;4.630;2023-06-22T03:50:25;20.60;99.90
23873;DHT22;42884;50.718;4.630;2023-06-22T03:52:51;20.60;99.90
23873;DHT22;42884;50.718;4.630;2023-06-22T03:55:19;20.60;99.90
23873;DHT22;42884;50.718;4.630;2023-06-22T03:57:44;20.60;99.90
23873;DHT22;42884;50.718;4.630;2023-06-22T04:00:10;20.70;99.90
23873;DHT22;42884;50.718;4.630;2023-06-22T04:02:36;20.70;99.90
23873;DHT22;42884;50.718;4.630;2023-06-22T04:05:01;20.70;99.90
23873;DHT22;42884;50.718;4.630;2023-06-22T04:07:27;20.80;99.90
23873;DHT22;42884;50.718;4.630;2023-06-22T04:09:53;20.80;99.90
23873;DHT22;42884;50.718;4.630;2023-06-22T04:12:18;20.80;99.90
23873;DHT22;42884;50.718;4.630;2023-06-22T04:14:44;20.80;99.90
23873;DHT22;42884;50.718;4.630;2023-06-22T04:17:09;20.70;99.90
23873;DHT22;42884;50.718;4.630;2023-06-22T04:19:35;20.80;99.90
23873;DHT22;42884;50.718;4.630;2023-06-22T04:22:01;20.80;99.90
23873;DHT22;42884;50.718;4.630;2023-06-22T04:24:26;20.80;99.90
23873;DHT22;42884;50.718;4.630;2023-06-22T04:26:52;20.70;99.90
23873;DHT22;42884;50.718;4.630;2023-06-22T04:29:20;20.80;99.90
23873;DHT22;42884;50.718;4.630;2023-06-22T04:31:46;20.80;99.90
23873;DHT22;42884;50.718;4.630;2023-06-22T04:34:16;20.90;99.90
23873;DHT22;42884;50.718;4.630;2023-06-22T04:36:42;20.90;99.90
23873;DHT22;42884;50.718;4.630;2023-06-22T04:39:09;20.90;99.90
23873;DHT22;42884;50.718;4.630;2023-06-22T04:41:35;20.80;99.90
23873;DHT22;42884;50.718;4.630;2023-06-22T04:44:08;20.90;99.90
23873;DHT22;42884;50.718;4.630;2023-06-22T04:46:33;20.90;99.90
23873;DHT22;42884;50.718;4.630;2023-06-22T04:49:04;20.90;99.90
23873;DHT22;42884;50.718;4.630;2023-06-22T04:51:32;20.90;99.90
23873;DHT22;42884;50.718;4.630;2023-06-22T04:53:57;20.90;99.90
23873;DHT22;42884;50.718;4.630;2023-06-22T04:56:26;20.90;99.90
23873;DHT22;42884;50.718;4.630;2023-06-22T04:58:53;21.00;99.90
23873;DHT22;42884;50.718;4.630;2023-06-22T05:01:22;21.00;99.90
23873;DHT22;42884;50.718;4.630;2023-06-22T05:03:48;21.10;99.90
23873;DHT22;42884;50.718;4.630;2023-06-22T05:06:13;21.10;99.90
23873;DHT22;42884;50.718;4.630;2023-06-22T05:08:40;21.20;99.90
23873;DHT22;42884;50.718;4.630;2023-06-22T05:11:05;21.20;99.90
23873;DHT22;42884;50.718;4.630;2023-06-22T05:13:32;21.20;99.90
23873;DHT22;42884;50.718;4.630;2023-06-22T05:15:57;21.20;99.90
23873;DHT22;42884;50.718;4.630;2023-06-22T05:18:30;21.20;99.90
23873;DHT22;42884;50.718;4.630;2023-06-22T05:20:56;21.30;99.90
23873;DHT22;42884;50.718;4.630;2023-06-22T05:23:21;21.30;99.90
23873;DHT22;42884;50.718;4.630;2023-06-22T05:25:47;21.30;99.90
23873;DHT22;42884;50.718;4.630;2023-06-22T05:28:13;21.40;99.90
23873;DHT22;42884;50.718;4.630;2023-06-22T05:30:39;21.40;99.90
23873;DHT22;42884;50.718;4.630;2023-06-22T05:33:04;21.40;99.90
23873;DHT22;42884;50.718;4.630;2023-06-22T05:35:30;21.50;99.90
23873;DHT22;42884;50.718;4.630;2023-06-22T05:37:56;21.50;99.90
23873;DHT22;42884;50.718;4.630;2023-06-22T05:40:22;21.60;99.90
23873;DHT22;42884;50.718;4.630;2023-06-22T05:42:47;21.60;99.90
23873;DHT22;42884;50.718;4.630;2023-06-22T05:45:13;21.60;99.90
23873;DHT22;42884;50.718;4.630;2023-06-22T05:47:38;21.60;99.90
23873;DHT22;42884;50.718;4.630;2023-06-22T05:50:04;21.60;99.90
23873;DHT22;42884;50.718;4.630;2023-06-22T05:52:32;21.50;99.90
23873;DHT22;42884;50.718;4.630;2023-06-22T05:54:58;21.50;99.90
23873;DHT22;42884;50.718;4.630;2023-06-22T05:57:23;21.50;99.90
23873;DHT22;42884;50.718;4.630;2023-06-22T05:59:49;21.60;99.90
23873;DHT22;42884;50.718;4.630;2023-06-22T06:02:14;21.60;99.90
23873;DHT22;42884;50.718;4.630;2023-06-22T06:04:40;21.70;99.90
23873;DHT22;42884;50.718;4.630;2023-06-22T06:07:06;21.60;99.90
23873;DHT22;42884;50.718;4.630;2023-06-22T06:09:31;21.60;99.90
23873;DHT22;42884;50.718;4.630;2023-06-22T06:11:57;21.60;99.90
23873;DHT22;42884;50.718;4.630;2023-06-22T06:14:22;21.60;99.90
23873;DHT22;42884;50.718;4.630;2023-06-22T06:16:48;21.60;99.90
23873;DHT22;42884;50.718;4.630;2023-06-22T06:19:14;21.70;99.90
23873;DHT22;42884;50.718;4.630;2023-06-22T06:21:40;21.80;99.90
23873;DHT22;42884;50.718;4.630;2023-06-22T06:24:05;21.80;99.90
23873;DHT22;42884;50.718;4.630;2023-06-22T06:26:31;21.70;99.90
23873;DHT22;42884;50.718;4.630;2023-06-22T06:28:58;21.80;99.90
23873;DHT22;42884;50.718;4.630;2023-06-22T06:31:24;21.90;99.90
23873;DHT22;42884;50.718;4.630;2023-06-22T06:33:49;21.90;99.90
23873;DHT22;42884;50.718;4.630;2023-06-22T06:36:15;22.00;99.90
23873;DHT22;42884;50.718;4.630;2023-06-22T06:38:41;22.00;99.90
23873;DHT22;42884;50.718;4.630;2023-06-22T06:41:07;22.20;99.90
23873;DHT22;42884;50.718;4.630;2023-06-22T06:43:32;22.20;99.90
23873;DHT22;42884;50.718;4.630;2023-06-22T06:45:58;22.30;99.90
23873;DHT22;42884;50.718;4.630;2023-06-22T06:48:23;22.40;99.90
23873;DHT22;42884;50.718;4.630;2023-06-22T06:50:51;22.50;99.90
23873;DHT22;42884;50.718;4.630;2023-06-22T06:53:17;22.50;99.90
23873;DHT22;42884;50.718;4.630;2023-06-22T06:55:42;22.50;99.90
23873;DHT22;42884;50.718;4.630;2023-06-22T06:58:10;22.60;99.90
23873;DHT22;42884;50.718;4.630;2023-06-22T07:00:38;22.70;99.90
23873;DHT22;42884;50.718;4.630;2023-06-22T07:03:04;22.80;99.90
23873;DHT22;42884;50.718;4.630;2023-06-22T07:05:30;22.80;99.90
23873;DHT22;42884;50.718;4.630;2023-06-22T07:07:55;22.90;99.90
23873;DHT22;42884;50.718;4.630;2023-06-22T07:10:21;23.10;99.90
23873;DHT22;42884;50.718;4.630;2023-06-22T07:12:46;23.20;99.90
23873;DHT22;42884;50.718;4.630;2023-06-22T07:15:13;23.20;99.90
23873;DHT22;42884;50.718;4.630;2023-06-22T07:17:39;23.20;99.90
23873;DHT22;42884;50.718;4.630;2023-06-22T07:20:06;23.20;99.90
23873;DHT22;42884;50.718;4.630;2023-06-22T07:22:35;23.20;99.90
23873;DHT22;42884;50.718;4.630;2023-06-22T07:25:01;23.30;99.90
23873;DHT22;42884;50.718;4.630;2023-06-22T07:27:29;23.30;99.90
23873;DHT22;42884;50.718;4.630;2023-06-22T07:30:00;23.10;99.90
23873;DHT22;42884;50.718;4.630;2023-06-22T07:32:26;23.00;99.90
23873;DHT22;42884;50.718;4.630;2023-06-22T07:34:51;23.20;99.90
23873;DHT22;42884;50.718;4.630;2023-06-22T07:37:17;23.30;99.90
23873;DHT22;42884;50.718;4.630;2023-06-22T07:39:42;23.40;99.90
23873;DHT22;42884;50.718;4.630;2023-06-22T07:42:08;23.20;99.90
23873;DHT22;42884;50.718;4.630;2023-06-22T07:44:34;23.00;99.90
23873;DHT22;42884;50.718;4.630;2023-06-22T07:47:00;23.10;99.90
23873;DHT22;42884;50.718;4.630;2023-06-22T07:49:25;23.20;99.90
23873;DHT22;42884;50.718;4.630;2023-06-22T07:51:51;23.10;99.90
23873;DHT22;42884;50.718;4.630;2023-06-22T07:54:16;22.90;99.90
23873;DHT22;42884;50.718;4.630;2023-06-22T07:56:42;23.10;99.90
23873;DHT22;42884;50.718;4.630;2023-06-22T07:59:08;23.20;99.90
23873;DHT22;42884;50.718;4.630;2023-06-22T08:01:34;23.20;99.90
23873;DHT22;42884;50.718;4.630;2023-06-22T08:03:59;23.20;99.90
23873;DHT22;42884;50.718;4.630;2023-06-22T08:06:25;23.10;99.90
23873;DHT22;42884;50.718;4.630;2023-06-22T08:08:50;22.90;99.90
23873;DHT22;42884;50.718;4.630;2023-06-22T08:11:19;22.90;99.90
23873;DHT22;42884;50.718;4.630;2023-06-22T08:13:44;22.90;99.90
23873;DHT22;42884;50.718;4.630;2023-06-22T08:16:10;23.10;99.90
23873;DHT22;42884;50.718;4.630;2023-06-22T08:18:35;23.10;99.90
23873;DHT22;42884;50.718;4.630;2023-06-22T08:21:01;23.10;99.90
23873;DHT22;42884;50.718;4.630;2023-06-22T08:23:27;23.20;99.90
23873;DHT22;42884;50.718;4.630;2023-06-22T08:25:52;23.30;99.90
23873;DHT22;42884;50.718;4.630;2023-06-22T08:28:18;23.30;99.90
23873;DHT22;42884;50.718;4.630;2023-06-22T08:30:43;23.30;99.90
23873;DHT22;42884;50.718;4.630;2023-06-22T08:33:09;23.40;99.90
23873;DHT22;42884;50.718;4.630;2023-06-22T08:35:35;23.40;99.90
23873;DHT22;42884;50.718;4.630;2023-06-22T08:38:00;23.50;99.90
23873;DHT22;42884;50.718;4.630;2023-06-22T08:40:27;23.50;99.90
23873;DHT22;42884;50.718;4.630;2023-06-22T08:42:54;23.60;99.90
23873;DHT22;42884;50.718;4.630;2023-06-22T08:45:20;23.60;99.90
23873;DHT22;42884;50.718;4.630;2023-06-22T08:47:45;23.50;99.90
23873;DHT22;42884;50.718;4.630;2023-06-22T08:50:11;23.50;99.90
23873;DHT22;42884;50.718;4.630;2023-06-22T08:52:38;23.50;99.90
23873;DHT22;42884;50.718;4.630;2023-06-22T08:55:06;23.50;99.90
23873;DHT22;42884;50.718;4.630;2023-06-22T08:57:31;23.60;99.90
23873;DHT22;42884;50.718;4.630;2023-06-22T08:59:58;23.70;99.90
23873;DHT22;42884;50.718;4.630;2023-06-22T09:02:24;23.70;99.90
23873;DHT22;42884;50.718;4.630;2023-06-22T09:04:50;23.60;99.90
23873;DHT22;42884;50.718;4.630;2023-06-22T09:07:21;23.70;99.90
23873;DHT22;42884;50.718;4.630;2023-06-22T09:09:48;23.70;99.90
23873;DHT22;42884;50.718;4.630;2023-06-22T09:12:14;23.70;99.90
23873;DHT22;42884;50.718;4.630;2023-06-22T09:14:39;23.60;99.90
23873;DHT22;42884;50.718;4.630;2023-06-22T09:17:05;23.40;99.90
23873;DHT22;42884;50.718;4.630;2023-06-22T09:19:31;23.40;99.90
23873;DHT22;42884;50.718;4.630;2023-06-22T09:21:56;23.40;99.90
23873;DHT22;42884;50.718;4.630;2023-06-22T09:24:22;23.30;99.90
23873;DHT22;42884;50.718;4.630;2023-06-22T09:26:48;23.30;99.90
23873;DHT22;42884;50.718;4.630;2023-06-22T09:29:13;23.20;99.90
23873;DHT22;42884;50.718;4.630;2023-06-22T09:31:39;23.20;99.90
23873;DHT22;42884;50.718;4.630;2023-06-22T09:34:04;23.20;99.90
23873;DHT22;42884;50.718;4.630;2023-06-22T09:36:30;23.00;99.90
23873;DHT22;42884;50.718;4.630;2023-06-22T09:38:56;23.00;99.90
23873;DHT22;42884;50.718;4.630;2023-06-22T09:41:24;22.90;99.90
23873;DHT22;42884;50.718;4.630;2023-06-22T09:43:49;22.70;99.90
23873;DHT22;42884;50.718;4.630;2023-06-22T09:46:15;22.70;99.90
23873;DHT22;42884;50.718;4.630;2023-06-22T09:48:41;22.70;99.90
23873;DHT22;42884;50.718;4.630;2023-06-22T09:51:06;22.70;99.90
23873;DHT22;42884;50.718;4.630;2023-06-22T09:53:32;22.60;99.90
23873;DHT22;42884;50.718;4.630;2023-06-22T09:56:00;22.60;99.90
23873;DHT22;42884;50.718;4.630;2023-06-22T09:58:25;22.50;99.90
23873;DHT22;42884;50.718;4.630;2023-06-22T10:00:51;22.60;99.90
23873;DHT22;42884;50.718;4.630;2023-06-22T10:03:16;22.50;99.90
23873;DHT22;42884;50.718;4.630;2023-06-22T10:05:42;22.50;99.90
23873;DHT22;42884;50.718;4.630;2023-06-22T10:08:08;22.50;99.90
23873;DHT22;42884;50.718;4.630;2023-06-22T10:10:35;22.50;99.90
23873;DHT22;42884;50.718;4.630;2023-06-22T10:13:10;22.40;99.90
23873;DHT22;42884;50.718;4.630;2023-06-22T10:15:36;22.30;99.90
23873;DHT22;42884;50.718;4.630;2023-06-22T10:18:01;22.30;99.90
23873;DHT22;42884;50.718;4.630;2023-06-22T10:20:27;22.20;99.90
23873;DHT22;42884;50.718;4.630;2023-06-22T10:22:53;22.00;99.90
23873;DHT22;42884;50.718;4.630;2023-06-22T10:25:19;21.80;99.90
23873;DHT22;42884;50.718;4.630;2023-06-22T10:27:44;21.90;99.90
23873;DHT22;42884;50.718;4.630;2023-06-22T10:30:10;21.80;99.90
23873;DHT22;42884;50.718;4.630;2023-06-22T10:32:38;21.50;99.90
23873;DHT22;42884;50.718;4.630;2023-06-22T10:35:04;21.40;99.90
23873;DHT22;42884;50.718;4.630;2023-06-22T10:37:29;21.30;99.90
23873;DHT22;42884;50.718;4.630;2023-06-22T10:39:55;21.20;99.90
23873;DHT22;42884;50.718;4.630;2023-06-22T10:42:21;21.20;99.90
23873;DHT22;42884;50.718;4.630;2023-06-22T10:44:46;21.10;99.90
23873;DHT22;42884;50.718;4.630;2023-06-22T10:47:12;21.00;99.90
23873;DHT22;42884;50.718;4.630;2023-06-22T10:49:38;20.90;99.90
23873;DHT22;42884;50.718;4.630;2023-06-22T10:52:04;20.80;99.90
23873;DHT22;42884;50.718;4.630;2023-06-22T10:54:29;20.90;99.90
23873;DHT22;42884;50.718;4.630;2023-06-22T10:56:55;21.00;99.90
23873;DHT22;42884;50.718;4.630;2023-06-22T10:59:20;20.90;99.90
23873;DHT22;42884;50.718;4.630;2023-06-22T11:01:48;21.00;99.90
23873;DHT22;42884;50.718;4.630;2023-06-22T11:04:14;20.90;99.90
23873;DHT22;42884;50.718;4.630;2023-06-22T11:06:40;20.70;99.90
23873;DHT22;42884;50.718;4.630;2023-06-22T11:09:05;20.70;99.90
23873;DHT22;42884;50.718;4.630;2023-06-22T11:11:31;20.70;99.90
23873;DHT22;42884;50.718;4.630;2023-06-22T11:13:56;20.90;99.90
23873;DHT22;42884;50.718;4.630;2023-06-22T11:16:22;20.90;99.90
23873;DHT22;42884;50.718;4.630;2023-06-22T11:18:48;20.90;99.90
23873;DHT22;42884;50.718;4.630;2023-06-22T11:21:13;20.60;99.90
23873;DHT22;42884;50.718;4.630;2023-06-22T11:23:39;20.60;99.90
23873;DHT22;42884;50.718;4.630;2023-06-22T11:26:04;20.50;99.90
23873;DHT22;42884;50.718;4.630;2023-06-22T11:28:30;20.60;99.90
23873;DHT22;42884;50.718;4.630;2023-06-22T11:30:55;20.70;99.90
23873;DHT22;42884;50.718;4.630;2023-06-22T11:33:21;20.70;99.90
23873;DHT22;42884;50.718;4.630;2023-06-22T11:35:47;20.70;99.90
23873;DHT22;42884;50.718;4.630;2023-06-22T11:38:12;20.60;99.90
23873;DHT22;42884;50.718;4.630;2023-06-22T11:40:38;20.60;99.90
23873;DHT22;42884;50.718;4.630;2023-06-22T11:43:03;20.50;99.90
23873;DHT22;42884;50.718;4.630;2023-06-22T11:45:29;20.40;99.90
23873;DHT22;42884;50.718;4.630;2023-06-22T11:47:55;20.60;99.90
23873;DHT22;42884;50.718;4.630;2023-06-22T11:50:20;20.70;99.90
23873;DHT22;42884;50.718;4.630;2023-06-22T11:52:46;20.60;99.90
23873;DHT22;42884;50.718;4.630;2023-06-22T11:55:11;20.50;99.90
23873;DHT22;42884;50.718;4.630;2023-06-22T11:57:38;20.60;99.90
23873;DHT22;42884;50.718;4.630;2023-06-22T12:00:04;20.70;99.90
23873;DHT22;42884;50.718;4.630;2023-06-22T12:02:41;20.70;99.90
23873;DHT22;42884;50.718;4.630;2023-06-22T12:05:07;20.40;99.90
23873;DHT22;42884;50.718;4.630;2023-06-22T12:07:33;20.30;99.90
23873;DHT22;42884;50.718;4.630;2023-06-22T12:09:58;20.20;99.90
23873;DHT22;42884;50.718;4.630;2023-06-22T12:12:24;19.90;99.90
23873;DHT22;42884;50.718;4.630;2023-06-22T12:14:50;19.90;99.90
23873;DHT22;42884;50.718;4.630;2023-06-22T12:17:15;19.80;99.90
23873;DHT22;42884;50.718;4.630;2023-06-22T12:19:41;20.00;99.90
23873;DHT22;42884;50.718;4.630;2023-06-22T12:22:06;19.90;99.90
23873;DHT22;42884;50.718;4.630;2023-06-22T12:24:32;20.00;99.90
23873;DHT22;42884;50.718;4.630;2023-06-22T12:26:57;20.00;99.90
23873;DHT22;42884;50.718;4.630;2023-06-22T12:29:23;20.10;99.90
23873;DHT22;42884;50.718;4.630;2023-06-22T12:31:49;20.10;99.90
23873;DHT22;42884;50.718;4.630;2023-06-22T12:34:14;20.20;99.90
23873;DHT22;42884;50.718;4.630;2023-06-22T12:36:40;20.20;99.90
23873;DHT22;42884;50.718;4.630;2023-06-22T12:39:05;20.20;99.90
23873;DHT22;42884;50.718;4.630;2023-06-22T12:41:31;20.20;99.90
23873;DHT22;42884;50.718;4.630;2023-06-22T12:43:56;20.10;99.90
23873;DHT22;42884;50.718;4.630;2023-06-22T12:46:22;20.00;99.90
23873;DHT22;42884;50.718;4.630;2023-06-22T12:48:48;20.00;99.90
23873;DHT22;42884;50.718;4.630;2023-06-22T12:51:19;19.90;99.90
23873;DHT22;42884;50.718;4.630;2023-06-22T12:53:45;20.00;99.90
23873;DHT22;42884;50.718;4.630;2023-06-22T12:56:10;20.00;99.90
23873;DHT22;42884;50.718;4.630;2023-06-22T12:58:36;19.80;99.90
23873;DHT22;42884;50.718;4.630;2023-06-22T13:01:01;19.90;99.90
23873;DHT22;42884;50.718;4.630;2023-06-22T13:03:27;19.90;99.90
23873;DHT22;42884;50.718;4.630;2023-06-22T13:05:53;19.80;99.90
23873;DHT22;42884;50.718;4.630;2023-06-22T13:08:18;19.80;99.90
23873;DHT22;42884;50.718;4.630;2023-06-22T13:10:44;19.70;99.90
23873;DHT22;42884;50.718;4.630;2023-06-22T13:13:10;19.70;99.90
23873;DHT22;42884;50.718;4.630;2023-06-22T13:15:35;19.60;99.90
23873;DHT22;42884;50.718;4.630;2023-06-22T13:18:01;19.70;99.90
23873;DHT22;42884;50.718;4.630;2023-06-22T13:20:26;19.70;99.90
23873;DHT22;42884;50.718;4.630;2023-06-22T13:22:53;19.80;99.90
23873;DHT22;42884;50.718;4.630;2023-06-22T13:25:19;19.80;99.90
23873;DHT22;42884;50.718;4.630;2023-06-22T13:27:47;19.80;99.90
23873;DHT22;42884;50.718;4.630;2023-06-22T13:30:12;19.80;99.90
23873;DHT22;42884;50.718;4.630;2023-06-22T13:32:38;19.80;99.90
23873;DHT22;42884;50.718;4.630;2023-06-22T13:35:07;19.80;99.90
23873;DHT22;42884;50.718;4.630;2023-06-22T13:37:33;19.80;99.90
23873;DHT22;42884;50.718;4.630;2023-06-22T13:39:58;19.80;99.90
23873;DHT22;42884;50.718;4.630;2023-06-22T13:42:25;19.80;99.90
23873;DHT22;42884;50.718;4.630;2023-06-22T13:44:50;19.80;99.90
23873;DHT22;42884;50.718;4.630;2023-06-22T13:47:16;19.90;99.90
23873;DHT22;42884;50.718;4.630;2023-06-22T13:49:41;19.80;99.90
23873;DHT22;42884;50.718;4.630;2023-06-22T13:52:07;19.70;99.90
23873;DHT22;42884;50.718;4.630;2023-06-22T13:54:35;19.60;99.90
23873;DHT22;42884;50.718;4.630;2023-06-22T13:57:01;19.60;99.90
23873;DHT22;42884;50.718;4.630;2023-06-22T13:59:27;19.70;99.90
23873;DHT22;42884;50.718;4.630;2023-06-22T14:01:53;19.80;99.90
23873;DHT22;42884;50.718;4.630;2023-06-22T14:04:19;19.80;99.90
23873;DHT22;42884;50.718;4.630;2023-06-22T14:06:44;19.70;99.90
23873;DHT22;42884;50.718;4.630;2023-06-22T14:09:10;19.70;99.90
23873;DHT22;42884;50.718;4.630;2023-06-22T14:11:35;19.60;99.90
23873;DHT22;42884;50.718;4.630;2023-06-22T14:14:01;19.50;99.90
23873;DHT22;42884;50.718;4.630;2023-06-22T14:16:26;19.50;99.90
23873;DHT22;42884;50.718;4.630;2023-06-22T14:18:52;19.50;99.90
23873;DHT22;42884;50.718;4.630;2023-06-22T14:21:17;19.50;99.90
23873;DHT22;42884;50.718;4.630;2023-06-22T14:23:44;19.40;99.90
23873;DHT22;42884;50.718;4.630;2023-06-22T14:26:15;19.50;99.90
23873;DHT22;42884;50.718;4.630;2023-06-22T14:28:43;19.50;99.90
23873;DHT22;42884;50.718;4.630;2023-06-22T14:31:18;19.60;99.90
23873;DHT22;42884;50.718;4.630;2023-06-22T14:33:45;19.70;99.90
23873;DHT22;42884;50.718;4.630;2023-06-22T14:36:11;19.70;99.90
23873;DHT22;42884;50.718;4.630;2023-06-22T14:38:36;19.60;99.90
23873;DHT22;42884;50.718;4.630;2023-06-22T14:41:02;19.50;99.90
23873;DHT22;42884;50.718;4.630;2023-06-22T14:43:27;19.60;99.90
23873;DHT22;42884;50.718;4.630;2023-06-22T14:45:53;19.50;99.90
23873;DHT22;42884;50.718;4.630;2023-06-22T14:48:19;19.50;99.90
23873;DHT22;42884;50.718;4.630;2023-06-22T14:50:44;19.40;99.90
23873;DHT22;42884;50.718;4.630;2023-06-22T14:53:10;19.50;99.90
23873;DHT22;42884;50.718;4.630;2023-06-22T14:55:35;19.60;99.90
23873;DHT22;42884;50.718;4.630;2023-06-22T14:58:01;19.60;99.90
23873;DHT22;42884;50.718;4.630;2023-06-22T15:00:26;19.70;99.90
23873;DHT22;42884;50.718;4.630;2023-06-22T15:02:52;19.50;99.90
23873;DHT22;42884;50.718;4.630;2023-06-22T15:05:18;19.50;99.90
23873;DHT22;42884;50.718;4.630;2023-06-22T15:07:43;19.50;99.90
23873;DHT22;42884;50.718;4.630;2023-06-22T15:10:09;19.50;99.90
23873;DHT22;42884;50.718;4.630;2023-06-22T15:12:34;19.50;99.90
23873;DHT22;42884;50.718;4.630;2023-06-22T15:15:00;19.50;99.90
23873;DHT22;42884;50.718;4.630;2023-06-22T15:17:25;19.70;99.90
23873;DHT22;42884;50.718;4.630;2023-06-22T15:19:54;19.70;99.90
23873;DHT22;42884;50.718;4.630;2023-06-22T15:22:20;19.70;99.90
23873;DHT22;42884;50.718;4.630;2023-06-22T15:24:46;19.80;99.90
23873;DHT22;42884;50.718;4.630;2023-06-22T15:27:13;19.90;99.90
23873;DHT22;42884;50.718;4.630;2023-06-22T15:29:39;19.90;99.90